createdAt,value
2023-02-19T00:01:26.028Z,17.01
2023-02-19T00:03:54.665Z,16.99
2023-02-19T00:06:22.638Z,17.00
2023-02-19T00:08:50.100Z,17.00
2023-02-19T00:11:18.954Z,17.01
2023-02-19T00:13:48.092Z,17.01
2023-02-19T00:16:16.534Z,17.01
2023-02-19T00:18:44.742Z,17.00
2023-02-19T00:21:12.378Z,16.99
2023-02-19T00:23:39.955Z,17.00
2023-02-19T00:26:17.673Z,17.00
2023-02-19T00:28:49.954Z,16.99
2023-02-19T00:31:27.775Z,17.00
2023-02-19T00:33:56.638Z,17.00
2023-02-19T00:36:24.372Z,17.00
2023-02-19T00:38:52.194Z,16.98
2023-02-19T00:41:20.717Z,16.99
2023-02-19T00:43:49.583Z,17.01
2023-02-19T00:46:17.732Z,16.99
2023-02-19T00:48:45.542Z,16.98
2023-02-19T00:51:12.988Z,16.99
2023-02-19T00:53:40.635Z,16.99
2023-02-19T00:56:08.293Z,16.97
2023-02-19T00:58:36.727Z,16.98
2023-02-19T01:01:04.382Z,16.98
2023-02-19T01:03:32.141Z,17.00
2023-02-19T01:05:59.985Z,16.98
2023-02-19T01:08:27.542Z,16.98
2023-02-19T01:10:54.657Z,16.96
2023-02-19T01:13:22.061Z,16.99
2023-02-19T01:15:49.189Z,16.99
2023-02-19T01:18:16.954Z,16.98
2023-02-19T01:20:45.045Z,16.99
2023-02-19T01:23:13.118Z,16.98
2023-02-19T01:25:41.945Z,16.96
2023-02-19T01:28:10.765Z,16.97
2023-02-19T01:30:38.696Z,16.97
2023-02-19T01:33:07.095Z,16.96
2023-02-19T01:35:34.910Z,16.97
2023-02-19T01:38:02.328Z,16.98
2023-02-19T01:40:29.819Z,16.97
2023-02-19T01:42:57.190Z,16.98
2023-02-19T01:45:24.289Z,16.95
2023-02-19T01:47:57.926Z,16.97
2023-02-19T01:50:28.149Z,16.97
2023-02-19T01:52:55.603Z,16.96
2023-02-19T01:55:23.563Z,16.96
2023-02-19T01:57:53.493Z,16.96
2023-02-19T02:00:20.851Z,16.97
2023-02-19T02:02:51.129Z,16.95
2023-02-19T02:05:28.689Z,16.95
2023-02-19T02:08:14.728Z,16.95
2023-02-19T02:10:43.077Z,16.96
2023-02-19T02:13:10.480Z,16.95
2023-02-19T02:15:47.569Z,16.96
2023-02-19T02:18:23.188Z,16.96
2023-02-19T02:21:10.908Z,16.96
2023-02-19T02:23:47.922Z,16.95
2023-02-19T02:26:27.757Z,16.94
2023-02-19T02:29:11.641Z,16.93
2023-02-19T02:31:44.088Z,16.95
2023-02-19T02:34:17.921Z,16.94
2023-02-19T02:36:49.829Z,16.93
2023-02-19T02:39:19.630Z,16.93
2023-02-19T02:42:13.132Z,16.94
2023-02-19T02:44:41.582Z,16.95
2023-02-19T02:47:30.263Z,16.94
2023-02-19T02:50:07.164Z,16.94
2023-02-19T02:52:56.116Z,16.94
2023-02-19T02:55:24.850Z,16.94
2023-02-19T02:57:52.243Z,16.94
2023-02-19T03:00:19.784Z,16.94
2023-02-19T03:02:46.845Z,16.94
2023-02-19T03:05:38.302Z,16.94
2023-02-19T03:08:21.082Z,16.96
2023-02-19T03:10:51.475Z,16.96
2023-02-19T03:13:39.972Z,16.96
2023-02-19T03:16:31.507Z,16.95
2023-02-19T03:19:18.137Z,16.95
2023-02-19T03:22:10.193Z,16.96
2023-02-19T03:25:16.647Z,16.96
2023-02-19T03:27:46.159Z,16.96
2023-02-19T03:30:16.616Z,16.96
2023-02-19T03:32:47.107Z,16.96
2023-02-19T03:35:25.826Z,16.96
2023-02-19T03:38:12.568Z,16.95
2023-02-19T03:41:02.580Z,16.95
2023-02-19T03:43:45.388Z,16.96
2023-02-19T03:46:23.303Z,16.95
2023-02-19T03:49:01.493Z,16.95
2023-02-19T03:51:28.641Z,16.96
2023-02-19T03:54:05.888Z,16.95
2023-02-19T03:56:51.791Z,16.96
2023-02-19T03:59:19.292Z,16.96
2023-02-19T04:01:53.669Z,16.97
2023-02-19T04:04:30.434Z,16.94
2023-02-19T04:06:58.478Z,16.94
2023-02-19T04:09:29.927Z,16.95
2023-02-19T04:11:57.286Z,16.95
2023-02-19T04:14:34.860Z,16.94
2023-02-19T04:17:03.598Z,16.94
2023-02-19T04:19:33.562Z,16.94
2023-02-19T04:22:01.627Z,16.94
2023-02-19T04:24:35.644Z,16.95
2023-02-19T04:27:03.556Z,16.95
2023-02-19T04:29:31.086Z,16.95
2023-02-19T04:31:58.311Z,16.94
2023-02-19T04:34:25.836Z,16.94
2023-02-19T04:36:53.038Z,16.94
2023-02-19T04:39:20.490Z,16.94
2023-02-19T04:41:47.895Z,16.94
2023-02-19T04:44:15.443Z,16.95
2023-02-19T04:46:43.232Z,16.95
2023-02-19T04:49:10.731Z,16.94
2023-02-19T04:51:38.303Z,16.94
2023-02-19T04:54:06.034Z,16.95
2023-02-19T04:56:33.278Z,16.93
2023-02-19T04:59:00.775Z,16.94
2023-02-19T05:01:27.902Z,16.95
2023-02-19T05:03:55.373Z,16.93
2023-02-19T05:06:22.526Z,16.95
2023-02-19T05:08:49.939Z,16.94
2023-02-19T05:11:17.015Z,16.95
2023-02-19T05:13:44.513Z,16.96
2023-02-19T05:16:13.886Z,16.95
2023-02-19T05:18:42.141Z,16.95
2023-02-19T05:21:10.721Z,16.95
2023-02-19T05:23:38.650Z,16.95
2023-02-19T05:26:06.909Z,16.96
2023-02-19T05:28:34.641Z,16.95
2023-02-19T05:31:05.120Z,16.95
2023-02-19T05:33:32.643Z,16.95
2023-02-19T05:35:59.837Z,16.96
2023-02-19T05:38:27.300Z,16.96
2023-02-19T05:40:54.418Z,16.96
2023-02-19T05:43:21.907Z,16.96
2023-02-19T05:45:49.022Z,16.97
2023-02-19T05:48:16.510Z,16.94
2023-02-19T05:50:43.634Z,16.94
2023-02-19T05:53:11.122Z,16.96
2023-02-19T05:55:38.243Z,16.94
2023-02-19T05:58:05.645Z,16.94
2023-02-19T06:00:33.864Z,16.96
2023-02-19T06:03:03.079Z,16.94
2023-02-19T06:05:30.300Z,16.95
2023-02-19T06:07:57.709Z,16.95
2023-02-19T06:10:25.031Z,16.96
2023-02-19T06:12:53.375Z,16.95
2023-02-19T06:15:20.835Z,16.95
2023-02-19T06:17:49.066Z,16.95
2023-02-19T06:20:16.386Z,16.96
2023-02-19T06:22:43.742Z,16.96
2023-02-19T06:25:12.649Z,16.95
2023-02-19T06:27:40.010Z,16.93
2023-02-19T06:30:07.501Z,16.95
2023-02-19T06:32:34.840Z,16.96
2023-02-19T06:35:01.970Z,16.94
2023-02-19T06:37:29.815Z,16.93
2023-02-19T06:39:56.985Z,16.94
2023-02-19T06:42:25.251Z,16.95
2023-02-19T06:44:52.465Z,16.95
2023-02-19T06:47:20.039Z,16.95
2023-02-19T06:49:47.365Z,16.94
2023-02-19T06:52:14.728Z,16.94
2023-02-19T06:54:43.160Z,16.94
2023-02-19T06:57:10.572Z,16.94
2023-02-19T06:59:37.729Z,16.94
2023-02-19T07:02:05.271Z,16.93
2023-02-19T07:04:32.652Z,16.94
2023-02-19T07:07:00.241Z,16.92
2023-02-19T07:09:28.506Z,16.94
2023-02-19T07:11:56.002Z,16.93
2023-02-19T07:14:23.274Z,16.93
2023-02-19T07:16:51.213Z,16.95
2023-02-19T07:19:18.345Z,16.94
2023-02-19T07:21:45.852Z,16.94
2023-02-19T07:24:13.217Z,16.93
2023-02-19T07:26:40.599Z,16.95
2023-02-19T07:29:09.131Z,16.96
2023-02-19T07:31:36.545Z,16.95
2023-02-19T07:34:04.985Z,16.96
2023-02-19T07:36:32.346Z,16.96
2023-02-19T07:38:59.734Z,16.95
2023-02-19T07:41:27.550Z,16.95
2023-02-19T07:43:54.717Z,16.95
2023-02-19T07:46:22.658Z,16.94
2023-02-19T07:48:49.781Z,16.95
2023-02-19T07:51:19.114Z,16.96
2023-02-19T07:53:46.562Z,16.95
2023-02-19T07:56:14.221Z,16.97
2023-02-19T07:58:41.821Z,16.97
2023-02-19T08:01:11.555Z,16.98
2023-02-19T08:03:39.256Z,16.96
2023-02-19T08:06:07.053Z,16.97
2023-02-19T08:08:34.335Z,16.95
2023-02-19T08:11:21.167Z,16.97
2023-02-19T08:13:49.196Z,16.96
2023-02-19T08:16:29.625Z,16.96
2023-02-19T08:19:04.368Z,16.97
2023-02-19T08:21:34.228Z,16.95
2023-02-19T08:24:01.550Z,16.96
2023-02-19T08:26:29.626Z,16.95
2023-02-19T08:28:56.987Z,16.95
2023-02-19T08:31:25.079Z,16.94
2023-02-19T08:33:52.366Z,16.95
2023-02-19T08:36:19.793Z,16.95
2023-02-19T08:38:47.210Z,16.96
2023-02-19T08:41:15.098Z,16.95
2023-02-19T08:43:42.792Z,16.95
2023-02-19T08:46:11.305Z,16.95
2023-02-19T08:48:39.009Z,16.96
2023-02-19T08:51:08.557Z,16.94
2023-02-19T08:53:36.700Z,16.95
2023-02-19T08:56:15.581Z,16.94
2023-02-19T08:58:43.520Z,16.95
2023-02-19T09:01:12.946Z,16.94
2023-02-19T09:03:40.509Z,16.94
2023-02-19T09:06:08.231Z,16.95
2023-02-19T09:08:35.490Z,16.95
2023-02-19T09:11:04.556Z,16.94
2023-02-19T09:13:32.600Z,16.93
2023-02-19T09:16:00.304Z,16.94
2023-02-19T09:18:27.414Z,16.94
2023-02-19T09:20:54.811Z,16.94
2023-02-19T09:23:22.164Z,16.93
2023-02-19T09:25:56.410Z,16.93
2023-02-19T09:28:23.801Z,16.94
2023-02-19T09:30:51.301Z,16.93
2023-02-19T09:33:18.506Z,16.94
2023-02-19T09:35:45.834Z,16.94
2023-02-19T09:38:13.256Z,16.94
2023-02-19T09:40:41.208Z,16.93
2023-02-19T09:43:09.916Z,16.93
2023-02-19T09:45:38.141Z,16.93
2023-02-19T09:48:06.355Z,16.92
2023-02-19T09:50:36.118Z,16.93
2023-02-19T09:53:04.900Z,16.92
2023-02-19T09:55:34.819Z,16.93
2023-02-19T09:58:06.514Z,16.93
2023-02-19T10:00:36.066Z,16.92
2023-02-19T10:03:14.819Z,16.94
2023-02-19T10:05:42.618Z,16.93
2023-02-19T10:08:15.430Z,16.92
2023-02-19T10:10:43.888Z,16.92
2023-02-19T10:13:17.392Z,16.92
2023-02-19T10:15:50.575Z,16.92
2023-02-19T10:18:19.185Z,16.91
2023-02-19T10:20:47.596Z,16.91
2023-02-19T10:23:15.240Z,16.91
2023-02-19T10:25:59.159Z,16.92
2023-02-19T10:28:30.484Z,16.93
2023-02-19T10:30:58.988Z,16.92
2023-02-19T10:33:26.389Z,16.91
2023-02-19T10:35:54.570Z,16.90
2023-02-19T10:38:23.816Z,16.91
2023-02-19T10:40:56.527Z,16.92
2023-02-19T10:43:31.619Z,16.92
2023-02-19T10:46:01.156Z,16.93
2023-02-19T10:48:30.613Z,16.94
2023-02-19T10:51:05.014Z,16.94
2023-02-19T10:53:40.770Z,16.96
2023-02-19T10:56:08.358Z,16.95
2023-02-19T10:58:37.808Z,16.96
2023-02-19T11:01:16.452Z,16.96
2023-02-19T11:03:45.641Z,16.96
2023-02-19T11:06:14.238Z,16.96
2023-02-19T11:08:49.687Z,16.94
2023-02-19T11:11:23.402Z,16.96
2023-02-19T11:13:50.800Z,16.95
2023-02-19T11:16:18.212Z,16.95
2023-02-19T11:18:54.357Z,16.95
2023-02-19T11:21:28.907Z,16.96
2023-02-19T11:23:56.363Z,16.95
2023-02-19T11:26:25.230Z,16.95
2023-02-19T11:28:56.439Z,16.94
2023-02-19T11:31:26.576Z,16.96
2023-02-19T11:34:04.231Z,16.96
2023-02-19T11:36:31.661Z,16.97
2023-02-19T11:39:00.972Z,16.95
2023-02-19T11:41:40.434Z,16.96
2023-02-19T11:44:16.636Z,16.96
2023-02-19T11:46:56.236Z,16.96
2023-02-19T11:49:29.305Z,16.97
2023-02-19T11:51:59.888Z,16.97
2023-02-19T11:54:42.463Z,16.98
2023-02-19T11:57:17.029Z,16.97
2023-02-19T11:59:48.367Z,16.97
2023-02-19T12:02:21.758Z,16.96
2023-02-19T12:04:57.906Z,16.94
2023-02-19T12:07:54.357Z,16.93
2023-02-19T12:10:32.494Z,16.92
2023-02-19T12:13:19.840Z,16.93
2023-02-19T12:15:52.704Z,16.92
2023-02-19T12:18:55.505Z,16.92
2023-02-19T12:21:28.484Z,16.92
2023-02-19T12:24:15.399Z,16.92
2023-02-19T12:27:01.953Z,16.91
2023-02-19T12:29:29.266Z,16.92
2023-02-19T12:32:00.009Z,16.91
2023-02-19T12:34:36.189Z,16.90
2023-02-19T12:37:03.259Z,16.92
2023-02-19T12:39:49.119Z,16.93
2023-02-19T12:42:25.387Z,16.92
2023-02-19T12:44:57.728Z,16.94
2023-02-19T12:47:28.409Z,16.94
2023-02-19T12:50:05.571Z,16.95
2023-02-19T12:52:37.305Z,16.93
2023-02-19T12:55:13.963Z,16.94
2023-02-19T12:57:41.372Z,16.92
2023-02-19T13:00:17.720Z,16.93
2023-02-19T13:02:59.496Z,16.92
2023-02-19T13:05:47.376Z,16.90
2023-02-19T13:08:19.971Z,16.89
2023-02-19T13:10:48.554Z,16.88
2023-02-19T13:13:18.545Z,16.86
2023-02-19T13:15:48.506Z,16.86
2023-02-19T13:18:27.817Z,16.85
2023-02-19T13:20:56.365Z,16.84
2023-02-19T13:23:43.731Z,16.83
2023-02-19T13:26:29.552Z,16.84
2023-02-19T13:28:59.603Z,16.85
2023-02-19T13:31:45.300Z,16.83
2023-02-19T13:34:31.185Z,16.85
2023-02-19T13:36:58.938Z,16.83
2023-02-19T13:39:27.590Z,16.83
2023-02-19T13:41:57.163Z,16.82
2023-02-19T13:44:32.172Z,16.81
2023-02-19T13:47:00.576Z,16.81
2023-02-19T13:49:27.648Z,16.81
2023-02-19T13:51:56.358Z,16.81
2023-02-19T13:54:49.554Z,16.80
2023-02-19T13:57:19.602Z,16.78
2023-02-19T13:59:48.265Z,16.78
2023-02-19T14:02:21.532Z,16.78
2023-02-19T14:04:51.699Z,16.79
2023-02-19T14:07:19.024Z,16.78
2023-02-19T14:09:46.776Z,16.79
2023-02-19T14:12:15.889Z,16.78
2023-02-19T14:14:56.084Z,16.78
2023-02-19T14:17:35.031Z,16.79
2023-02-19T14:20:02.171Z,16.77
2023-02-19T14:22:50.140Z,16.78
2023-02-19T14:25:39.762Z,16.77
2023-02-19T14:28:10.399Z,16.79
2023-02-19T14:30:43.558Z,16.79
2023-02-19T14:33:11.499Z,16.81
2023-02-19T14:35:44.606Z,16.81
2023-02-19T14:38:32.284Z,16.81
2023-02-19T14:40:59.625Z,16.81
2023-02-19T14:43:27.748Z,16.81
2023-02-19T14:45:59.091Z,16.80
2023-02-19T14:48:35.148Z,16.79
2023-02-19T14:51:06.094Z,16.80
2023-02-19T14:53:37.579Z,16.80
2023-02-19T14:56:05.155Z,16.78
2023-02-19T14:58:33.726Z,16.80
2023-02-19T15:01:00.798Z,16.80
2023-02-19T15:03:31.247Z,16.78
2023-02-19T15:06:12.083Z,16.78
2023-02-19T15:08:45.169Z,16.77
2023-02-19T15:11:17.185Z,16.75
2023-02-19T15:13:48.219Z,16.75
2023-02-19T15:16:19.619Z,16.75
2023-02-19T15:18:48.272Z,16.73
2023-02-19T15:21:26.161Z,16.75
2023-02-19T15:23:54.944Z,16.74
2023-02-19T15:26:42.237Z,16.74
2023-02-19T15:29:11.309Z,16.75
2023-02-19T15:31:44.990Z,16.75
2023-02-19T15:34:23.389Z,16.75
2023-02-19T15:36:52.625Z,16.73
2023-02-19T15:39:24.427Z,16.73
2023-02-19T15:41:53.308Z,16.73
2023-02-19T15:44:29.366Z,16.73
2023-02-19T15:46:56.995Z,16.73
2023-02-19T15:49:31.074Z,16.71
2023-02-19T15:52:03.818Z,16.71
2023-02-19T15:54:34.366Z,16.71
2023-02-19T15:57:06.021Z,16.72
2023-02-19T15:59:33.317Z,16.71
2023-02-19T16:02:01.361Z,16.71
2023-02-19T16:04:28.779Z,16.70
2023-02-19T16:07:02.190Z,16.70
2023-02-19T16:09:31.000Z,16.69
2023-02-19T16:12:01.598Z,16.69
2023-02-19T16:14:30.276Z,16.70
2023-02-19T16:17:07.374Z,16.69
2023-02-19T16:19:43.913Z,16.70
2023-02-19T16:22:12.198Z,16.69
2023-02-19T16:24:45.203Z,16.67
2023-02-19T16:27:28.427Z,16.67
2023-02-19T16:29:55.819Z,16.67
2023-02-19T16:32:23.583Z,16.67
2023-02-19T16:34:51.592Z,16.67
2023-02-19T16:37:30.918Z,16.67
2023-02-19T16:40:07.093Z,16.69
2023-02-19T16:42:34.573Z,16.67
2023-02-19T16:45:01.867Z,16.68
2023-02-19T16:47:30.191Z,16.67
2023-02-19T16:49:59.018Z,16.69
2023-02-19T16:52:26.150Z,16.69
2023-02-19T16:54:53.577Z,16.68
2023-02-19T16:57:20.995Z,16.66
2023-02-19T16:59:48.395Z,16.65
2023-02-19T17:02:17.974Z,16.63
2023-02-19T17:04:46.263Z,16.63
2023-02-19T17:07:14.708Z,16.63
2023-02-19T17:09:42.089Z,16.60
2023-02-19T17:12:11.007Z,16.60
2023-02-19T17:14:38.309Z,16.61
2023-02-19T17:17:05.478Z,16.62
2023-02-19T17:19:32.758Z,16.62
2023-02-19T17:21:59.859Z,16.61
2023-02-19T17:24:27.097Z,16.63
2023-02-19T17:26:54.854Z,16.61
2023-02-19T17:29:22.371Z,16.62
2023-02-19T17:31:49.450Z,16.64
2023-02-19T17:34:17.441Z,16.64
2023-02-19T17:36:45.496Z,16.65
2023-02-19T17:39:15.184Z,16.66
2023-02-19T17:41:42.228Z,16.66
2023-02-19T17:44:09.672Z,16.64
2023-02-19T17:46:37.321Z,16.64
2023-02-19T17:49:04.705Z,16.66
2023-02-19T17:51:31.752Z,16.67
2023-02-19T17:53:59.026Z,16.68
2023-02-19T17:56:26.655Z,16.68
2023-02-19T17:58:54.956Z,16.70
2023-02-19T18:01:22.298Z,16.71
2023-02-19T18:03:49.808Z,16.74
2023-02-19T18:06:16.871Z,16.74
2023-02-19T18:08:48.840Z,16.73
2023-02-19T18:11:16.316Z,16.75
2023-02-19T18:13:43.631Z,16.77
2023-02-19T18:16:10.721Z,16.77
2023-02-19T18:18:38.171Z,16.80
2023-02-19T18:21:09.528Z,16.79
2023-02-19T18:23:37.181Z,16.82
2023-02-19T18:26:11.370Z,16.80
2023-02-19T18:28:39.079Z,16.80
2023-02-19T18:31:06.495Z,16.80
2023-02-19T18:33:35.322Z,16.81
2023-02-19T18:36:02.812Z,16.84
2023-02-19T18:38:30.427Z,16.84
2023-02-19T18:40:58.757Z,16.83
2023-02-19T18:43:26.364Z,16.84
2023-02-19T18:45:53.467Z,16.84
2023-02-19T18:48:20.992Z,16.88
2023-02-19T18:50:48.036Z,16.89
2023-02-19T18:53:15.542Z,16.87
2023-02-19T18:55:42.541Z,16.87
2023-02-19T18:58:09.758Z,16.86
2023-02-19T19:00:38.002Z,16.89
2023-02-19T19:03:06.467Z,16.89
2023-02-19T19:05:33.873Z,16.91
2023-02-19T19:08:01.826Z,16.93
2023-02-19T19:10:29.789Z,16.92
2023-02-19T19:12:57.692Z,16.93
2023-02-19T19:15:25.019Z,16.94
2023-02-19T19:17:52.599Z,16.93
2023-02-19T19:20:20.720Z,16.96
2023-02-19T19:22:52.316Z,16.97
2023-02-19T19:25:19.897Z,16.99
2023-02-19T19:27:47.207Z,17.01
2023-02-19T19:30:14.415Z,17.03
2023-02-19T19:32:42.161Z,17.01
2023-02-19T19:35:09.626Z,17.04
2023-02-19T19:37:37.014Z,17.08
2023-02-19T19:40:04.254Z,17.08
2023-02-19T19:42:31.594Z,17.12
2023-02-19T19:44:58.623Z,17.13
2023-02-19T19:47:25.871Z,17.15
2023-02-19T19:49:53.051Z,17.17
2023-02-19T19:52:20.284Z,17.18
2023-02-19T19:54:47.295Z,17.18
2023-02-19T19:57:15.927Z,17.21
2023-02-19T19:59:43.678Z,17.21
2023-02-19T20:02:11.930Z,17.25
2023-02-19T20:04:38.901Z,17.27
2023-02-19T20:07:06.302Z,17.28
2023-02-19T20:09:33.615Z,17.29
2023-02-19T20:12:01.992Z,17.28
2023-02-19T20:14:29.194Z,17.32
2023-02-19T20:16:57.699Z,17.32
2023-02-19T20:19:24.798Z,17.33
2023-02-19T20:21:53.538Z,17.33
2023-02-19T20:24:24.279Z,17.35
2023-02-19T20:26:53.480Z,17.36
2023-02-19T20:29:20.651Z,17.37
2023-02-19T20:31:51.255Z,17.37
2023-02-19T20:34:18.446Z,17.38
2023-02-19T20:36:47.230Z,17.37
2023-02-19T20:39:18.325Z,17.39
2023-02-19T20:41:48.422Z,17.36
2023-02-19T20:44:15.896Z,17.38
2023-02-19T20:46:47.697Z,17.39
2023-02-19T20:49:15.918Z,17.38
2023-02-19T20:51:48.187Z,17.39
2023-02-19T20:54:19.108Z,17.38
2023-02-19T20:56:50.133Z,17.38
2023-02-19T20:59:17.834Z,17.38
2023-02-19T21:01:45.601Z,17.37
2023-02-19T21:04:13.474Z,17.36
2023-02-19T21:06:41.649Z,17.36
2023-02-19T21:09:08.621Z,17.34
2023-02-19T21:11:35.911Z,17.36
2023-02-19T21:14:03.013Z,17.34
2023-02-19T21:16:31.636Z,17.34
2023-02-19T21:18:58.861Z,17.32
2023-02-19T21:21:26.669Z,17.33
2023-02-19T21:23:54.373Z,17.33
2023-02-19T21:26:22.315Z,17.30
2023-02-19T21:28:52.610Z,17.30
2023-02-19T21:31:20.902Z,17.32
2023-02-19T21:33:47.971Z,17.31
2023-02-19T21:36:17.876Z,17.30
2023-02-19T21:38:51.101Z,17.29
2023-02-19T21:41:18.384Z,17.26
2023-02-19T21:43:45.451Z,17.27
2023-02-19T21:46:17.712Z,17.25
2023-02-19T21:48:47.270Z,17.24
2023-02-19T21:51:14.937Z,17.24
2023-02-19T21:53:41.865Z,17.24
2023-02-19T21:56:10.146Z,17.25
2023-02-19T21:58:37.168Z,17.21
2023-02-19T22:01:04.467Z,17.22
2023-02-19T22:03:31.851Z,17.21
2023-02-19T22:06:01.117Z,17.20
2023-02-19T22:08:28.080Z,17.19
2023-02-19T22:10:55.463Z,17.18
2023-02-19T22:13:22.422Z,17.18
2023-02-19T22:15:50.592Z,17.18
2023-02-19T22:18:17.640Z,17.15
2023-02-19T22:20:44.969Z,17.16
2023-02-19T22:23:12.843Z,17.15
2023-02-19T22:25:40.067Z,17.14
2023-02-19T22:28:07.768Z,17.15
2023-02-19T22:30:35.030Z,17.14
2023-02-19T22:33:02.015Z,17.12
2023-02-19T22:35:29.372Z,17.13
2023-02-19T22:37:56.416Z,17.13
2023-02-19T22:40:23.794Z,17.13
2023-02-19T22:42:50.735Z,17.12
2023-02-19T22:45:18.002Z,17.11
2023-02-19T22:47:46.838Z,17.11
2023-02-19T22:50:18.598Z,17.09
2023-02-19T22:52:45.734Z,17.12
2023-02-19T22:55:13.515Z,17.08
2023-02-19T22:57:40.483Z,17.09
2023-02-19T23:00:08.476Z,17.08
2023-02-19T23:02:36.235Z,17.06
2023-02-19T23:05:03.617Z,17.09
2023-02-19T23:07:30.621Z,17.06
2023-02-19T23:09:57.830Z,17.05
2023-02-19T23:12:24.774Z,17.06
2023-02-19T23:14:51.991Z,17.05
2023-02-19T23:17:19.524Z,17.05
2023-02-19T23:19:47.638Z,17.04
2023-02-19T23:22:14.946Z,17.05
2023-02-19T23:24:42.160Z,17.05
2023-02-19T23:27:09.216Z,17.03
2023-02-19T23:29:36.559Z,17.04
2023-02-19T23:32:03.599Z,17.02
2023-02-19T23:34:30.949Z,17.02
2023-02-19T23:36:59.566Z,17.01
2023-02-19T23:39:26.835Z,17.02
2023-02-19T23:41:55.384Z,17.01
2023-02-19T23:44:23.426Z,17.00
2023-02-19T23:46:51.145Z,17.00
2023-02-19T23:49:19.160Z,17.00
2023-02-19T23:51:46.157Z,16.99
2023-02-19T23:54:13.597Z,17.00
2023-02-19T23:56:40.665Z,16.98
2023-02-19T23:59:08.007Z,16.98
